Stamford, Vermont
Current Conditions -  °F | °C
As of 8:52 PM on Thursday 18 Dec 2014 (Local Time) from KAQW Reporting Station
Overcast Overcast  
Wind Chill: 21°   Ceiling: 1700
Heat Index: 32°   Visibility: 10mi
Dew Point: 25°   Wind: 16mph
Humidity: 75%   Direction: 270°W
Pressure: 29.89"   Gusts: 25mph
Location:  42.788°N, 73.0785°W
Report Text: KAQW 190152Z AUTO 27014G22KT 10SM OVC017 00/M04 A2989 RMK AO2 SLP130 T00001039
Loading
Personal Weather Stations






























Interactive Weather Map New forecast layout! Learn more

10-Day Weather Forecast

Advertisements
Track Severe Weather on mobile